Für Piloten

Informationen für Piloten zum Flugplatz Borken-Hoxfeld
Hier findest Du alle relevanten Informationen, die Du als Pilot benötigst, um Borken-Hoxfeld anzufliegen.

Flugplatz: Borken-Hoxfeld ICAO-Code: EDLY
Borken-Hoxfeld Info: 122,930 Mhz
GAFOR Gebiet: 32
Platzrunde: Motorflug; -> Südplatzrunde; Segelflug; -> Nordplatzrunde;
Landegebühr: z.Zt. 5,00 Euro
Platzhöhe: 48m üMSL
Pisten: 12/30 – 740 m x 30 m, GRAS
Betriebszeiten: PPR (in den Sommermonaten Mittagspause beachten)

 

Wetterforecast:

Available data for EDDL from the past 2 hours
DUESSELDORF
Metar
EDDL 210420Z 04003KT CAVOK 11/08 Q1027 NOSIG

04:20 UTC

Wind: 40° 3kt

Visibility:

Sky:

Temp: 11 deg C / 51.8 deg F

Dewpoint: 8 deg C / 46.4 deg F

Pressure: 1027 hPa

TAF
TAF EDDL 202300Z 2100/2206 03005KT 9999 SCT045 BECMG 2115/2118 VRB02KT

Alle obigen Informationen ersetzen nicht die vorgeschriebene, persönliche Flugvorbereitung.